Time;durP1;ratioP1;P1;durP2;ratioP2;P2;SDS_P1;SDS_P2;PMS_P1;PMS_P2;Temp;Humidity;BMP_temperature;BMP_pressure;BME280_temperature;BME280_humidity;BME280_pressure;Samples;Min_cycle;Max_cycle;Signal;HPM_P1;HPM_P2
2021/10/05 00:01:32;;;;;;;15.40;7.10;;;;;;;9.73;64.85;100730.83;27222;1218;3028142;-70
2021/10/05 00:04:01;;;;;;;13.60;7.60;;;;;;;9.69;65.11;100730.44;27217;1219;3049065;-70
2021/10/05 00:06:30;;;;;;;15.30;8.10;;;;;;;9.70;64.62;100732.32;27250;1218;3026910;-74
2021/10/05 00:09:01;;;;;;;16.50;7.60;;;;;;;9.73;64.60;100728.16;27237;1218;3058221;-69
2021/10/05 00:11:31;;;;;;;12.90;8.20;;;;;;;9.77;64.01;100725.96;27210;1218;3026222;-70
2021/10/05 00:14:01;;;;;;;13.50;7.40;;;;;;;9.78;64.17;100727.82;27228;1220;3026651;-75
2021/10/05 00:16:30;;;;;;;11.90;7.40;;;;;;;9.78;64.33;100723.63;27201;1218;3027790;-71
2021/10/05 00:18:59;;;;;;;12.60;7.70;;;;;;;9.80;64.49;100727.09;27225;1218;3050978;-70
2021/10/05 00:21:28;;;;;;;19.30;7.70;;;;;;;9.83;64.36;100726.95;27260;1218;3026784;-67
2021/10/05 00:23:57;;;;;;;14.80;7.80;;;;;;;9.83;64.48;100728.17;27225;1218;3056418;-76
2021/10/05 00:26:26;;;;;;;12.60;7.60;;;;;;;9.86;64.24;100727.38;27244;1217;3028439;-72
2021/10/05 00:28:55;;;;;;;14.10;7.70;;;;;;;9.84;64.62;100727.61;27270;1217;3051980;-72
2021/10/05 00:31:24;;;;;;;11.50;7.10;;;;;;;9.84;64.54;100727.61;27249;1218;3028420;-71
2021/10/05 00:33:54;;;;;;;15.20;7.00;;;;;;;9.86;64.35;100729.27;27288;1219;3054721;-67
2021/10/05 00:36:23;;;;;;;11.20;7.30;;;;;;;9.85;64.65;100728.96;27234;1218;3028334;-70
2021/10/05 00:38:52;;;;;;;12.40;7.40;;;;;;;9.85;64.67;100732.13;27203;1219;3047214;-71
2021/10/05 00:41:21;;;;;;;15.60;7.70;;;;;;;9.86;64.51;100732.42;27222;1219;3025904;-71
2021/10/05 00:43:50;;;;;;;11.00;7.10;;;;;;;9.86;64.78;100731.05;27199;1218;3070189;-71
2021/10/05 00:46:21;;;;;;;10.90;7.30;;;;;;;9.88;64.71;100734.65;27244;1219;3026398;-71
2021/10/05 00:48:50;;;;;;;12.80;7.50;;;;;;;9.88;64.80;100734.30;27278;1218;3050338;-71
2021/10/05 00:51:20;;;;;;;18.70;7.90;;;;;;;9.86;64.78;100738.38;27246;1218;3029164;-72
2021/10/05 00:53:49;;;;;;;15.70;7.80;;;;;;;9.82;65.04;100738.90;27230;1219;3053548;-72
2021/10/05 00:56:18;;;;;;;12.50;7.50;;;;;;;9.83;64.87;100743.04;27228;1219;3027916;-70
2021/10/05 00:58:47;;;;;;;11.60;7.60;;;;;;;9.87;64.67;100747.63;27232;1219;3047914;-72
2021/10/05 01:01:16;;;;;;;14.40;7.70;;;;;;;9.89;64.73;100749.48;27221;1217;3026296;-69
2021/10/05 01:03:46;;;;;;;10.60;7.40;;;;;;;9.88;64.62;100748.11;27200;1218;3027139;-73
2021/10/05 01:06:15;;;;;;;12.40;7.90;;;;;;;9.88;64.94;100749.00;27213;1219;3026373;-76
2021/10/05 01:08:46;;;;;;;17.10;7.70;;;;;;;9.87;65.02;100747.97;27238;1219;3054661;-70
2021/10/05 01:11:15;;;;;;;11.80;7.50;;;;;;;9.84;65.07;100747.03;27236;1218;3028044;-72
2021/10/05 01:13:44;;;;;;;14.30;7.80;;;;;;;9.83;65.09;100748.83;27266;1218;3025836;-71
2021/10/05 01:16:19;;;;;;;10.60;5.60;;;;;;;9.87;64.82;100747.79;27300;1218;3051884;-71
2021/10/05 01:18:48;;;;;;;11.10;6.00;;;;;;;10.51;63.81;100749.04;27248;1218;3053326;-73
2021/10/05 01:21:17;;;;;;;9.70;6.30;;;;;;;11.13;61.86;100749.50;27220;1219;3026434;-68
2021/10/05 01:23:47;;;;;;;13.20;7.10;;;;;;;11.25;61.06;100743.20;27232;1220;3051892;-70
2021/10/05 01:26:15;;;;;;;12.50;6.90;;;;;;;11.21;61.07;100746.52;27240;1217;3026173;-72
2021/10/05 01:28:44;;;;;;;12.30;6.70;;;;;;;11.05;61.23;100744.06;27226;1218;3048930;-73
2021/10/05 01:31:13;;;;;;;12.60;7.50;;;;;;;10.87;61.71;100747.23;27233;1217;3026099;-69
2021/10/05 01:33:42;;;;;;;11.20;7.10;;;;;;;10.68;62.31;100750.66;27248;1221;3055376;-71
2021/10/05 01:36:11;;;;;;;12.30;7.60;;;;;;;10.60;62.44;100753.59;27243;1219;3027618;-74
2021/10/05 01:38:40;;;;;;;11.90;7.10;;;;;;;10.52;62.70;100753.04;27240;1216;3051406;-71
2021/10/05 01:41:09;;;;;;;15.10;7.60;;;;;;;10.43;63.15;100756.73;27255;1218;3028193;-72
2021/10/05 01:43:38;;;;;;;12.20;8.00;;;;;;;10.32;63.30;100756.77;27303;1219;3054097;-68
2021/10/05 01:46:13;;;;;;;14.40;7.90;;;;;;;10.32;63.20;100761.35;27233;1218;3027308;-72
2021/10/05 01:48:42;;;;;;;11.30;7.50;;;;;;;10.30;63.30;100756.33;27257;1218;3048562;-72
2021/10/05 01:51:11;;;;;;;11.10;7.50;;;;;;;10.28;63.31;100757.45;27244;1218;3027190;-73
2021/10/05 01:53:41;;;;;;;16.10;7.50;;;;;;;10.20;64.01;100762.14;27219;1218;3070286;-70
2021/10/05 01:56:10;;;;;;;13.70;7.50;;;;;;;10.07;64.37;100764.36;27241;1218;3026073;-68
2021/10/05 01:58:39;;;;;;;18.70;7.70;;;;;;;9.97;65.03;100766.13;27267;1219;3052696;-73
2021/10/05 02:01:08;;;;;;;12.70;7.90;;;;;;;9.90;65.26;100768.52;27228;1218;3027190;-73
2021/10/05 02:03:37;;;;;;;12.20;7.60;;;;;;;9.90;65.33;100773.60;27222;1219;3026234;-71
2021/10/05 02:06:07;;;;;;;13.20;7.70;;;;;;;9.87;65.21;100777.89;27230;1219;3053082;-73
2021/10/05 02:08:36;;;;;;;15.90;8.50;;;;;;;9.84;65.45;100776.61;27223;1219;3026061;-73
2021/10/05 02:11:05;;;;;;;13.10;8.10;;;;;;;9.84;65.26;100784.48;27224;1218;3026186;-71
2021/10/05 02:13:35;;;;;;;14.80;7.80;;;;;;;9.79;65.72;100785.88;27254;1218;3050647;-71
2021/10/05 02:16:05;;;;;;;11.30;8.20;;;;;;;9.81;65.66;100786.16;27213;1217;3026296;-71
2021/10/05 02:18:33;;;;;;;17.00;8.10;;;;;;;9.79;65.72;100792.02;27217;1219;3026143;-74
2021/10/05 02:21:03;;;;;;;17.00;8.40;;;;;;;9.80;65.62;100795.50;27222;1219;3053369;-70
2021/10/05 02:26:20;;;;;;;13.30;5.80;;;;;;;10.50;64.27;100791.65;27247;1218;3051934;-69
2021/10/05 02:28:49;;;;;;;12.60;6.30;;;;;;;11.04;62.43;100796.00;27229;1217;3026777;-73
2021/10/05 02:31:18;;;;;;;9.50;6.70;;;;;;;11.15;61.95;100798.52;27233;1217;3067186;-72
2021/10/05 02:33:48;;;;;;;11.70;6.90;;;;;;;11.04;61.81;100800.22;27222;1219;3026530;-70
2021/10/05 02:36:17;;;;;;;13.20;7.30;;;;;;;10.88;62.31;100803.48;27238;1218;3026893;-72
2021/10/05 02:38:46;;;;;;;12.60;6.90;;;;;;;10.74;62.78;100806.33;27268;1218;3025935;-71
2021/10/05 02:41:15;;;;;;;14.30;7.80;;;;;;;10.58;63.10;100804.83;27232;1217;3047916;-72
2021/10/05 02:43:44;;;;;;;10.20;6.80;;;;;;;10.45;63.43;100806.73;27240;1219;3028512;-72
2021/10/05 02:46:13;;;;;;;13.10;7.70;;;;;;;10.38;63.60;100809.83;27236;1219;3068671;-71
2021/10/05 02:48:43;;;;;;;14.10;8.20;;;;;;;10.28;64.04;100811.21;27203;1218;3026035;-68
2021/10/05 02:51:12;;;;;;;13.70;8.50;;;;;;;10.20;64.32;100809.58;27249;1218;3026043;-71
2021/10/05 02:53:41;;;;;;;13.00;7.90;;;;;;;10.16;64.27;100809.90;27256;1218;3069947;-70
2021/10/05 02:56:10;;;;;;;12.40;7.40;;;;;;;10.08;64.73;100812.48;27243;1218;3026442;-72
2021/10/05 02:58:39;;;;;;;11.40;7.80;;;;;;;10.05;64.70;100814.69;27241;1219;3050501;-73
2021/10/05 03:01:08;;;;;;;13.90;7.50;;;;;;;10.00;64.96;100811.74;27250;1218;3028299;-70
2021/10/05 03:03:37;;;;;;;12.30;8.00;;;;;;;9.93;65.26;100811.98;27255;1219;3054555;-70
2021/10/05 03:06:06;;;;;;;15.30;8.10;;;;;;;9.96;64.77;100811.86;27279;1218;3026429;-70
2021/10/05 03:08:36;;;;;;;13.40;7.70;;;;;;;9.97;64.87;100809.56;27186;1217;3048354;-70
2021/10/05 03:11:05;;;;;;;14.40;9.30;;;;;;;9.95;64.79;100807.88;27224;1218;3027510;-69
2021/10/05 03:13:35;;;;;;;12.90;8.60;;;;;;;9.98;64.74;100807.77;27242;1218;3028853;-70
2021/10/05 03:16:05;;;;;;;13.60;8.10;;;;;;;9.93;65.11;100811.98;27219;1218;3027292;-72
2021/10/05 03:18:34;;;;;;;15.50;8.70;;;;;;;9.90;65.27;100811.04;27229;1219;3027209;-74
2021/10/05 03:21:03;;;;;;;14.30;8.40;;;;;;;9.93;64.92;100814.79;27227;1218;3026884;-70
2021/10/05 03:23:33;;;;;;;13.00;8.30;;;;;;;9.89;65.35;100815.64;27217;1219;3069986;-72
2021/10/05 03:26:04;;;;;;;12.70;8.20;;;;;;;9.89;65.19;100815.64;27211;1219;3026150;-72
2021/10/05 03:28:33;;;;;;;12.70;8.30;;;;;;;9.89;65.25;100814.95;27218;1218;3051244;-70
2021/10/05 03:31:02;;;;;;;14.30;8.20;;;;;;;9.88;65.12;100820.20;27248;1216;3026074;-71
2021/10/05 03:33:32;;;;;;;15.50;8.80;;;;;;;9.88;65.30;100815.66;27243;1218;3027591;-71
2021/10/05 03:36:01;;;;;;;16.30;8.80;;;;;;;9.84;65.50;100821.24;27214;1219;3053320;-68
2021/10/05 03:38:30;;;;;;;16.80;6.50;;;;;;;9.87;65.40;100823.92;27266;1218;3027552;-73
2021/10/05 03:40:59;;;;;;;12.50;6.60;;;;;;;10.45;64.21;100826.17;27242;1218;3051551;-70
2021/10/05 03:43:28;;;;;;;8.80;6.20;;;;;;;11.12;62.47;100825.11;27222;1218;3026565;-71
2021/10/05 03:45:57;;;;;;;11.50;6.50;;;;;;;11.27;61.32;100826.95;27212;1218;3026077;-72
2021/10/05 03:48:26;;;;;;;14.10;7.40;;;;;;;11.13;61.49;100825.77;27231;1219;3051650;-70
2021/10/05 03:50:55;;;;;;;14.70;7.70;;;;;;;10.91;61.93;100829.83;27251;1218;3026629;-71
2021/10/05 03:53:24;;;;;;;13.30;7.50;;;;;;;10.80;62.22;100830.26;27271;1217;3053308;-68
2021/10/05 03:55:55;;;;;;;13.20;8.10;;;;;;;10.68;62.43;100832.13;27220;1217;3026039;-75
2021/10/05 03:58:24;;;;;;;10.00;7.10;;;;;;;10.63;62.65;100832.71;27280;1209;3026730;-69
2021/10/05 04:00:53;;;;;;;13.40;7.50;;;;;;;10.52;62.98;100834.33;27228;1219;3026113;-70
2021/10/05 04:03:23;;;;;;;14.80;8.10;;;;;;;10.44;62.99;100834.48;27235;1218;3026190;-70
2021/10/05 04:05:52;;;;;;;13.30;8.10;;;;;;;10.36;63.47;100833.70;27232;1218;3049688;-72
2021/10/05 04:08:21;;;;;;;14.70;8.80;;;;;;;10.32;63.80;100834.73;27202;1218;3025606;-70
2021/10/05 04:10:51;;;;;;;12.60;8.10;;;;;;;10.32;63.95;100838.39;27216;1216;3054416;-73
2021/10/05 04:13:20;;;;;;;15.80;8.40;;;;;;;10.32;63.88;100845.07;27244;1218;3027618;-74
2021/10/05 04:15:49;;;;;;;13.60;8.30;;;;;;;10.30;63.60;100843.52;27208;1218;3048401;-69
2021/10/05 04:18:18;;;;;;;12.20;8.10;;;;;;;10.23;64.15;100845.73;27240;1218;3026157;-70
2021/10/05 04:20:47;;;;;;;12.90;7.70;;;;;;;10.24;64.20;100844.48;27236;1218;3057892;-67
2021/10/05 04:23:16;;;;;;;14.40;8.60;;;;;;;10.15;64.45;100843.73;27275;1218;3026544;-70
2021/10/05 04:25:45;;;;;;;14.10;8.20;;;;;;;10.15;64.43;100850.21;27205;1218;3054455;-72
2021/10/05 04:28:14;;;;;;;15.20;8.70;;;;;;;10.05;64.87;100848.81;27243;1210;3026529;-71
2021/10/05 04:30:43;;;;;;;16.10;8.50;;;;;;;10.08;64.46;100848.71;27239;1218;3053503;-72
2021/10/05 04:33:12;;;;;;;13.60;8.60;;;;;;;10.11;64.44;100853.02;27215;1219;3025891;-72
2021/10/05 04:35:41;;;;;;;16.00;8.30;;;;;;;10.08;64.56;100852.04;27274;1218;3050890;-73
2021/10/05 04:38:10;;;;;;;14.60;7.90;;;;;;;10.06;64.50;100853.35;27224;1218;3025857;-74
2021/10/05 04:40:39;;;;;;;13.60;8.10;;;;;;;10.11;64.09;100852.80;27225;1219;3070470;-74
2021/10/05 04:43:08;;;;;;;11.20;8.10;;;;;;;10.13;64.00;100850.81;27252;1218;3026346;-74
2021/10/05 04:45:37;;;;;;;13.50;8.10;;;;;;;10.11;64.20;100852.83;27256;1218;3050736;-70
2021/10/05 04:48:07;;;;;;;14.30;8.30;;;;;;;9.98;64.97;100855.39;27314;1217;3025889;-72
2021/10/05 04:50:36;;;;;;;15.00;8.70;;;;;;;10.02;64.49;100854.73;27278;1219;3055529;-72
2021/10/05 04:53:05;;;;;;;12.20;8.40;;;;;;;10.01;64.74;100853.87;27231;1219;3025927;-73
2021/10/05 04:55:37;;;;;;;15.40;8.00;;;;;;;10.04;64.43;100853.74;27248;1217;3027130;-71
2021/10/05 04:58:06;;;;;;;18.50;8.70;;;;;;;10.05;64.45;100853.75;27228;1218;3025920;-74
2021/10/05 05:00:35;;;;;;;15.40;9.10;;;;;;;10.04;64.82;100854.29;27241;1209;3026062;-72
2021/10/05 05:03:04;;;;;;;18.20;8.60;;;;;;;10.08;64.65;100856.40;27275;1218;3026076;-74
2021/10/05 05:05:33;;;;;;;15.60;8.60;;;;;;;10.12;64.48;100858.02;27242;1216;3051082;-72
2021/10/05 05:08:02;;;;;;;14.60;9.10;;;;;;;10.05;64.81;100860.71;27227;1217;3026127;-71
2021/10/05 05:10:31;;;;;;;13.40;8.60;;;;;;;10.08;64.67;100862.38;27222;1219;3069635;-74
2021/10/05 05:13:00;;;;;;;13.60;8.30;;;;;;;10.12;64.50;100865.56;27232;1217;3026131;-76
2021/10/05 05:15:29;;;;;;;15.40;8.80;;;;;;;10.14;64.53;100869.35;27216;1218;3049968;-74
2021/10/05 05:17:58;;;;;;;16.80;9.20;;;;;;;10.21;64.31;100869.96;27240;1219;3026428;-71
2021/10/05 05:20:28;;;;;;;12.50;8.20;;;;;;;10.25;64.31;100870.86;27251;1217;3053675;-70
2021/10/05 05:22:57;;;;;;;16.70;8.70;;;;;;;10.22;64.46;100866.95;27246;1218;3026478;-71
2021/10/05 05:25:26;;;;;;;15.30;8.50;;;;;;;10.20;64.46;100874.36;27213;1218;3048801;-71
2021/10/05 05:27:55;;;;;;;14.50;8.70;;;;;;;10.25;64.45;100872.98;27291;1218;3025891;-72
2021/10/05 05:30:24;;;;;;;14.30;8.80;;;;;;;10.28;64.37;100871.84;27227;1218;3057953;-76
2021/10/05 05:32:53;;;;;;;17.60;8.80;;;;;;;10.34;63.93;100874.44;27194;1219;3025681;-72
2021/10/05 05:35:22;;;;;;;12.80;8.50;;;;;;;10.38;63.79;100875.48;27225;1217;3051075;-71
2021/10/05 05:37:51;;;;;;;13.40;8.60;;;;;;;10.37;63.78;100875.34;27227;1219;3028073;-73
2021/10/05 05:40:20;;;;;;;12.90;8.00;;;;;;;10.44;63.65;100873.36;27230;1219;3053910;-76
2021/10/05 05:42:49;;;;;;;13.00;8.40;;;;;;;10.50;63.38;100874.32;27225;1218;3026385;-74
2021/10/05 05:45:18;;;;;;;11.70;8.40;;;;;;;10.53;63.16;100875.11;27227;1218;3048487;-72
2021/10/05 05:47:47;;;;;;;18.40;8.50;;;;;;;10.52;63.35;100874.97;27265;1218;3026431;-75
2021/10/05 05:50:16;;;;;;;10.70;7.70;;;;;;;10.53;63.30;100879.66;27224;1218;3026341;-73
2021/10/05 05:52:45;;;;;;;15.60;8.50;;;;;;;10.60;63.03;100878.34;27230;1218;3026560;-71
2021/10/05 05:55:16;;;;;;;19.40;8.50;;;;;;;10.60;63.17;100875.02;27257;1218;3053982;-74
2021/10/05 05:57:48;;;;;;;12.90;8.20;;;;;;;10.65;63.25;100875.69;27237;1218;3027813;-70
2021/10/05 06:00:18;;;;;;;13.50;7.50;;;;;;;10.81;62.49;100876.33;27263;1219;3026482;-75
2021/10/05 06:02:47;;;;;;;13.80;7.30;;;;;;;10.89;62.30;100876.02;27253;1218;3026544;-69
2021/10/05 06:05:16;;;;;;;17.50;7.90;;;;;;;10.92;62.17;100873.63;27269;1202;3027514;-70
2021/10/05 06:07:45;;;;;;;14.40;7.80;;;;;;;10.91;62.10;100873.98;27210;1219;3057567;-76
2021/10/05 06:10:14;;;;;;;13.20;6.90;;;;;;;10.96;61.76;100873.98;27238;1218;3027458;-73
2021/10/05 06:12:43;;;;;;;16.50;7.70;;;;;;;11.01;61.31;100877.80;27249;1218;3051293;-68
2021/10/05 06:15:14;;;;;;;16.50;7.80;;;;;;;11.02;61.31;100880.23;27219;1219;3028403;-71
2021/10/05 06:17:44;;;;;;;17.00;7.20;;;;;;;11.13;61.05;100882.42;27233;1218;3052247;-71
2021/10/05 06:20:14;;;;;;;12.00;7.70;;;;;;;11.23;60.79;100882.89;27213;1217;3026176;-74
2021/10/05 06:22:43;;;;;;;12.90;6.60;;;;;;;11.30;60.30;100886.81;27278;1217;3026371;-72
2021/10/05 06:25:15;;;;;;;19.10;7.30;;;;;;;11.38;60.07;100888.42;27275;1218;3026294;-73
2021/10/05 06:27:44;;;;;;;11.00;6.90;;;;;;;11.45;59.72;100889.55;27278;1217;3054503;-72
2021/10/05 06:30:13;;;;;;;9.50;6.60;;;;;;;11.54;59.46;100889.33;27211;1218;3027746;-72
2021/10/05 06:32:44;;;;;;;9.50;6.20;;;;;;;11.67;58.59;100889.85;27222;1218;3054303;-69
2021/10/05 06:35:13;;;;;;;10.90;6.00;;;;;;;11.73;58.09;100890.81;27253;1217;3027635;-72
2021/10/05 06:37:42;;;;;;;15.80;6.50;;;;;;;11.84;57.81;100893.84;27278;1209;3026543;-71
2021/10/05 06:40:11;;;;;;;13.00;6.00;;;;;;;11.96;57.46;100893.39;27227;1217;3050390;-71
2021/10/05 06:42:40;;;;;;;13.10;6.20;;;;;;;12.03;57.04;100892.02;27204;1216;3025942;-70
2021/10/05 06:45:09;;;;;;;10.40;5.90;;;;;;;12.10;56.77;100894.16;27259;1220;3047858;-72
2021/10/05 06:47:39;;;;;;;14.70;6.10;;;;;;;12.19;56.02;100896.08;27234;1218;3026766;-73
2021/10/05 06:50:08;;;;;;;11.20;5.80;;;;;;;12.21;55.70;100899.80;27207;1218;3027932;-68
2021/10/05 06:52:38;;;;;;;9.70;5.20;;;;;;;12.31;55.48;100893.59;27273;1218;3048310;-70
2021/10/05 06:55:08;;;;;;;10.30;5.50;;;;;;;12.38;54.97;100894.14;27236;1217;3026627;-75
2021/10/05 06:57:37;;;;;;;10.50;5.00;;;;;;;12.49;54.54;100890.32;27241;1219;3070843;-69
2021/10/05 07:00:13;;;;;;;22.40;5.40;;;;;;;12.56;53.84;100890.17;27219;1218;3027240;-73
2021/10/05 07:02:43;;;;;;;13.50;5.60;;;;;;;12.56;53.11;100889.83;27211;1218;3051645;-76
2021/10/05 07:05:15;;;;;;;8.10;4.60;;;;;;;12.60;53.21;100888.21;27243;1217;3026020;-70
2021/10/05 07:07:46;;;;;;;15.30;5.60;;;;;;;12.67;53.20;100888.41;27265;1219;3029195;-69
2021/10/05 07:10:16;;;;;;;11.20;5.30;;;;;;;12.82;52.74;100893.37;27263;1218;3028515;-72
2021/10/05 07:12:45;;;;;;;11.50;5.00;;;;;;;12.91;52.48;100893.27;27212;1218;3026990;-73
2021/10/05 07:15:15;;;;;;;12.80;5.20;;;;;;;13.03;51.80;100889.01;27240;1217;3028969;-72
2021/10/05 07:17:44;;;;;;;10.10;5.10;;;;;;;13.15;51.82;100892.50;27242;1218;3049937;-72
2021/10/05 07:20:13;;;;;;;14.00;4.90;;;;;;;13.22;51.50;100892.86;27217;1218;3028226;-69
2021/10/05 07:22:44;;;;;;;12.80;4.60;;;;;;;13.35;51.30;100897.50;27225;1218;3047760;-70
2021/10/05 07:25:13;;;;;;;16.20;5.60;;;;;;;13.42;50.73;100897.35;27238;1218;3027894;-73
2021/10/05 07:27:50;;;;;;;13.10;4.90;;;;;;;13.53;50.45;100894.00;27190;1218;3069878;-69
2021/10/05 07:30:23;;;;;;;12.80;4.30;;;;;;;13.61;49.98;100893.93;27232;1218;3048558;-73
2021/10/05 07:32:53;;;;;;;12.80;4.50;;;;;;;13.72;49.10;100896.39;27244;1218;3051537;-73
2021/10/05 07:35:22;;;;;;;11.00;4.10;;;;;;;13.82;48.91;100899.21;27284;1218;3028088;-70
2021/10/05 07:37:52;;;;;;;8.80;4.40;;;;;;;13.90;48.52;100904.26;27259;1218;3025998;-75
2021/10/05 07:40:22;;;;;;;7.50;4.20;;;;;;;13.98;48.69;100902.82;27260;1218;3051743;-72
2021/10/05 07:42:53;;;;;;;7.80;3.70;;;;;;;14.08;48.45;100902.62;27249;1217;3028330;-70
2021/10/05 07:45:22;;;;;;;14.70;3.70;;;;;;;14.14;47.03;100904.80;27253;1217;3028070;-71
2021/10/05 07:47:52;;;;;;;7.60;3.80;;;;;;;14.18;45.93;100906.89;27206;1218;3026533;-73
2021/10/05 07:50:21;;;;;;;10.40;3.40;;;;;;;14.29;46.45;100902.25;27201;1218;3026486;-73
2021/10/05 07:52:50;;;;;;;8.30;3.20;;;;;;;14.39;46.21;100903.27;27213;1218;3028638;-77
2021/10/05 07:55:19;;;;;;;7.10;3.50;;;;;;;14.54;45.99;100904.25;27242;1217;3048133;-67
2021/10/05 07:57:49;;;;;;;9.20;3.30;;;;;;;14.66;45.34;100906.61;27271;1218;3026193;-71
2021/10/05 08:00:18;;;;;;;8.60;3.40;;;;;;;14.79;44.96;100901.87;27243;1217;3029400;-72
2021/10/05 08:02:47;;;;;;;11.90;3.50;;;;;;;14.84;45.00;100898.58;27221;1219;3053378;-73
2021/10/05 08:05:16;;;;;;;13.50;3.60;;;;;;;14.89;44.32;100904.30;27274;1218;3027978;-72
2021/10/05 08:07:46;;;;;;;8.30;3.50;;;;;;;15.00;44.14;100904.40;27223;1217;3056084;-71
2021/10/05 08:10:15;;;;;;;5.80;3.20;;;;;;;15.12;43.66;100897.71;27374;1217;3026502;-70
2021/10/05 08:12:45;;;;;;;4.40;2.90;;;;;;;15.20;43.01;100901.86;27346;1211;3026457;-74
2021/10/05 08:15:18;;;;;;;8.50;3.70;;;;;;;15.23;42.31;100901.33;27244;1219;3053001;-72
2021/10/05 08:17:47;;;;;;;10.10;4.10;;;;;;;15.31;42.28;100901.41;27245;1208;3026107;-72
2021/10/05 08:20:16;;;;;;;8.10;3.50;;;;;;;15.39;41.28;100902.35;27252;1218;3052715;-68
2021/10/05 08:22:45;;;;;;;14.00;3.20;;;;;;;15.53;41.49;100900.65;27222;1217;3026407;-70
2021/10/05 08:25:13;;;;;;;6.80;3.10;;;;;;;15.72;42.40;100903.23;27238;1217;3047750;-65
2021/10/05 08:27:44;;;;;;;6.20;3.10;;;;;;;15.75;41.18;100898.27;27281;1218;3025922;-69
2021/10/05 08:30:13;;;;;;;5.00;2.60;;;;;;;15.82;40.42;100900.08;27238;1217;3055344;-67
2021/10/05 08:32:44;;;;;;;9.80;2.90;;;;;;;15.86;39.60;100899.45;27232;1218;3025793;-71
2021/10/05 08:35:13;;;;;;;8.60;2.40;;;;;;;15.90;39.82;100901.14;27283;1218;3026874;-67
2021/10/05 08:37:42;;;;;;;7.00;3.20;;;;;;;15.99;38.96;100897.29;27283;1217;3025796;-70
2021/10/05 08:40:12;;;;;;;9.10;3.20;;;;;;;15.99;38.83;100897.61;27233;1218;3051445;-73
2021/10/05 08:42:40;;;;;;;7.40;3.50;;;;;;;16.01;39.26;100894.34;27252;1218;3026048;-71
2021/10/05 08:45:10;;;;;;;8.30;2.90;;;;;;;16.01;38.96;100893.80;27284;1219;3053821;-70
2021/10/05 08:47:38;;;;;;;13.00;2.80;;;;;;;16.14;38.21;100898.15;27244;1218;3028120;-68
2021/10/05 08:50:08;;;;;;;9.00;2.80;;;;;;;16.19;38.22;100893.44;27220;1218;3050527;-72
2021/10/05 08:52:37;;;;;;;6.10;2.90;;;;;;;16.17;38.02;100888.39;27229;1209;3026186;-72
2021/10/05 08:55:06;;;;;;;10.20;2.80;;;;;;;16.32;37.35;100885.02;27241;1218;3026043;-72
2021/10/05 08:57:35;;;;;;;11.00;2.80;;;;;;;16.40;37.22;100885.89;27237;1218;3051460;-70
2021/10/05 09:00:05;;;;;;;7.50;3.10;;;;;;;16.39;37.31;100887.75;27255;1218;3026599;-74
2021/10/05 09:02:44;;;;;;;7.90;3.00;;;;;;;16.44;37.36;100881.09;27278;1218;3051094;-67
2021/10/05 09:05:14;;;;;;;5.80;2.90;;;;;;;16.50;36.95;100887.95;27258;1218;3052140;-71
2021/10/05 09:07:46;;;;;;;7.90;3.00;;;;;;;16.60;36.24;100890.50;27217;1218;3026486;-75
2021/10/05 09:10:17;;;;;;;9.50;3.00;;;;;;;16.67;35.94;100890.96;27232;1218;3026738;-73
2021/10/05 09:12:47;;;;;;;10.40;2.80;;;;;;;16.71;35.84;100894.24;27236;1218;3028112;-69
2021/10/05 09:15:17;;;;;;;13.70;3.60;;;;;;;16.72;36.50;100890.48;27234;1217;3027970;-71
2021/10/05 09:18:04;;;;;;;12.40;3.20;;;;;;;16.75;35.71;100889.56;27269;1218;3026461;-68
2021/10/05 09:20:35;;;;;;;9.10;3.20;;;;;;;16.84;34.73;100888.28;27238;1219;3051251;-65
2021/10/05 09:23:12;;;;;;;13.00;3.00;;;;;;;16.86;34.16;100895.38;27236;1208;3026177;-67
2021/10/05 09:25:44;;;;;;;15.50;3.20;;;;;;;16.89;34.49;100900.73;27229;1217;3054675;-72
2021/10/05 09:28:21;;;;;;;14.00;3.00;;;;;;;17.10;34.41;100903.80;27236;1218;3027490;-74
2021/10/05 09:30:59;;;;;;;8.10;2.80;;;;;;;17.14;33.65;100889.38;27192;1218;3047379;-68
2021/10/05 09:33:28;;;;;;;8.20;2.50;;;;;;;17.20;34.08;100888.23;27267;1217;3052889;-65
2021/10/05 09:35:57;;;;;;;11.60;3.00;;;;;;;17.15;34.36;100887.92;27235;1218;3026123;-68
2021/10/05 09:38:28;;;;;;;5.40;2.80;;;;;;;17.22;33.83;100880.58;27261;1217;3025944;-72
2021/10/05 09:41:04;;;;;;;9.70;2.40;;;;;;;17.15;33.61;100879.60;27296;1218;3053957;-69
2021/10/05 09:43:34;;;;;;;10.00;2.60;;;;;;;17.11;33.63;100884.45;27247;1219;3052386;-73
2021/10/05 09:46:13;;;;;;;9.00;2.40;;;;;;;17.16;33.95;100880.96;27220;1218;3026084;-68
2021/10/05 09:48:42;;;;;;;7.70;2.40;;;;;;;17.25;33.45;100875.72;27235;1218;3048932;-65
2021/10/05 09:51:15;;;;;;;5.50;2.40;;;;;;;17.31;33.14;100879.21;27255;1218;3026642;-70
2021/10/05 09:53:44;;;;;;;7.70;2.20;;;;;;;17.39;32.74;100872.88;27266;1218;3026694;-68
2021/10/05 09:56:14;;;;;;;10.10;2.60;;;;;;;17.39;32.34;100874.31;27260;1218;3026115;-69
2021/10/05 09:58:43;;;;;;;10.50;2.10;;;;;;;17.43;32.22;100879.67;27251;1218;3053862;-74
2021/10/05 10:01:12;;;;;;;7.20;2.30;;;;;;;17.46;32.44;100876.11;27226;1210;3026080;-73
2021/10/05 10:03:41;;;;;;;6.80;2.30;;;;;;;17.51;32.54;100878.63;27259;1218;3026421;-67
2021/10/05 10:06:10;;;;;;;7.60;2.40;;;;;;;17.64;32.47;100876.52;27214;1217;3054203;-74
2021/10/05 10:08:40;;;;;;;7.20;2.50;;;;;;;17.67;33.12;100875.60;27260;1219;3026342;-68
2021/10/05 10:11:09;;;;;;;6.90;2.60;;;;;;;17.76;32.73;100875.33;27242;1219;3049005;-74
2021/10/05 10:13:40;;;;;;;11.10;2.30;;;;;;;17.85;32.58;100875.10;27254;1203;3028307;-67
2021/10/05 10:16:10;;;;;;;7.70;2.30;;;;;;;18.01;31.79;100870.29;27207;1218;3069887;-72
2021/10/05 10:18:49;;;;;;;4.60;2.70;;;;;;;17.86;31.97;100870.95;27304;1219;3026038;-68
2021/10/05 10:21:27;;;;;;;6.50;2.50;;;;;;;17.88;32.10;100869.59;27207;1218;3051059;-69
2021/10/05 10:24:13;;;;;;;5.60;2.40;;;;;;;17.90;31.76;100871.76;27213;1219;3067919;-69
2021/10/05 10:26:44;;;;;;;5.40;2.50;;;;;;;17.91;31.97;100865.98;27252;1218;3049196;-68
2021/10/05 10:29:17;;;;;;;6.80;2.20;;;;;;;17.83;31.75;100863.86;27268;1218;3026140;-69
2021/10/05 10:31:46;;;;;;;9.80;2.30;;;;;;;17.74;32.02;100859.18;27240;1219;3027150;-68
2021/10/05 10:34:22;;;;;;;10.60;2.50;;;;;;;17.71;31.66;100857.81;27180;1219;3026579;-69
2021/10/05 10:36:52;;;;;;;6.10;2.60;;;;;;;17.75;31.77;100855.05;27233;1219;3054443;-73
2021/10/05 10:39:21;;;;;;;8.40;2.40;;;;;;;17.73;32.04;100853.89;27229;1218;3026581;-72
2021/10/05 10:41:53;;;;;;;10.70;2.80;;;;;;;17.71;32.20;100854.95;27263;1218;3047710;-68
2021/10/05 10:44:34;;;;;;;11.80;2.70;;;;;;;17.54;32.74;100863.69;27278;1217;3026967;-72
2021/10/05 10:47:06;;;;;;;12.50;2.60;;;;;;;17.34;33.38;100859.52;27300;1218;3053411;-71
2021/10/05 10:49:35;;;;;;;9.80;2.70;;;;;;;17.21;33.39;100858.98;27295;1218;3026184;-71
2021/10/05 10:52:05;;;;;;;7.70;2.70;;;;;;;17.25;33.29;100849.38;27253;1218;3030007;-72
2021/10/05 10:54:35;;;;;;;6.40;2.70;;;;;;;17.41;32.93;100849.65;27297;1218;3051466;-70
2021/10/05 10:57:06;;;;;;;5.80;2.50;;;;;;;17.43;33.03;100849.91;27266;1218;3028009;-73
2021/10/05 10:59:36;;;;;;;9.80;3.00;;;;;;;17.53;33.11;100849.95;27310;1218;3050334;-68
2021/10/05 11:02:05;;;;;;;7.50;2.70;;;;;;;17.70;33.56;100848.85;27278;1218;3026404;-70
2021/10/05 11:04:35;;;;;;;20.40;2.90;;;;;;;17.64;32.93;100845.70;27294;1218;3050788;-68
2021/10/05 11:07:04;;;;;;;10.10;3.00;;;;;;;17.82;32.73;100843.96;27276;1218;3026101;-70
2021/10/05 11:09:34;;;;;;;5.10;2.50;;;;;;;17.88;32.65;100847.24;27264;1218;3027235;-70
2021/10/05 11:12:07;;;;;;;12.40;3.60;;;;;;;17.79;32.98;100852.09;27234;1218;3026542;-68
2021/10/05 11:14:39;;;;;;;6.10;2.70;;;;;;;17.63;33.17;100854.23;27238;1217;3049085;-70
2021/10/05 11:17:09;;;;;;;8.60;2.80;;;;;;;17.56;33.16;100853.64;27259;1218;3029144;-70
2021/10/05 11:19:40;;;;;;;13.70;3.40;;;;;;;17.47;33.82;100858.70;27226;1217;3026456;-70